sensor_id;sensor_type;location;lat;lon;timestamp;temperature;humidity
15636;DHT22;7917;50.818;6.972;2023-04-24T00:00:19;10.60;1.00
15636;DHT22;7917;50.818;6.972;2023-04-24T00:02:45;10.60;5.50
15636;DHT22;7917;50.818;6.972;2023-04-24T00:05:13;10.70;1.00
15636;DHT22;7917;50.818;6.972;2023-04-24T00:07:40;10.70;1.00
15636;DHT22;7917;50.818;6.972;2023-04-24T00:10:08;10.70;35.00
15636;DHT22;7917;50.818;6.972;2023-04-24T00:12:38;10.70;99.90
15636;DHT22;7917;50.818;6.972;2023-04-24T00:15:07;10.70;1.00
15636;DHT22;7917;50.818;6.972;2023-04-24T00:17:34;10.70;1.00
15636;DHT22;7917;50.818;6.972;2023-04-24T00:20:00;10.70;23.10
15636;DHT22;7917;50.818;6.972;2023-04-24T00:22:30;10.60;99.90
15636;DHT22;7917;50.818;6.972;2023-04-24T00:24:57;10.60;99.90
15636;DHT22;7917;50.818;6.972;2023-04-24T00:27:23;10.50;1.00
15636;DHT22;7917;50.818;6.972;2023-04-24T00:29:50;10.50;99.90
15636;DHT22;7917;50.818;6.972;2023-04-24T00:32:17;10.50;99.90
15636;DHT22;7917;50.818;6.972;2023-04-24T00:34:44;10.50;99.90
15636;DHT22;7917;50.818;6.972;2023-04-24T00:37:11;10.60;99.90
15636;DHT22;7917;50.818;6.972;2023-04-24T00:39:38;10.60;67.30
15636;DHT22;7917;50.818;6.972;2023-04-24T00:42:04;10.60;99.90
15636;DHT22;7917;50.818;6.972;2023-04-24T00:44:32;10.70;1.00
15636;DHT22;7917;50.818;6.972;2023-04-24T00:47:02;10.70;1.00
15636;DHT22;7917;50.818;6.972;2023-04-24T00:49:29;10.80;1.00
15636;DHT22;7917;50.818;6.972;2023-04-24T00:51:56;10.80;99.90
15636;DHT22;7917;50.818;6.972;2023-04-24T00:54:25;10.80;1.00
15636;DHT22;7917;50.818;6.972;2023-04-24T00:56:51;10.80;1.00
15636;DHT22;7917;50.818;6.972;2023-04-24T00:59:18;10.80;99.90
15636;DHT22;7917;50.818;6.972;2023-04-24T01:01:45;10.80;99.90
15636;DHT22;7917;50.818;6.972;2023-04-24T01:04:12;10.90;1.00
15636;DHT22;7917;50.818;6.972;2023-04-24T01:06:40;10.90;1.00
15636;DHT22;7917;50.818;6.972;2023-04-24T01:09:10;10.90;1.00
15636;DHT22;7917;50.818;6.972;2023-04-24T01:11:38;10.90;11.00
15636;DHT22;7917;50.818;6.972;2023-04-24T01:14:04;10.90;99.90
15636;DHT22;7917;50.818;6.972;2023-04-24T01:16:31;10.90;1.00
15636;DHT22;7917;50.818;6.972;2023-04-24T01:18:57;10.80;1.00
15636;DHT22;7917;50.818;6.972;2023-04-24T01:21:27;10.80;1.00
15636;DHT22;7917;50.818;6.972;2023-04-24T01:23:56;10.80;1.00
15636;DHT22;7917;50.818;6.972;2023-04-24T01:26:25;10.80;95.70
15636;DHT22;7917;50.818;6.972;2023-04-24T01:28:52;10.80;1.00
15636;DHT22;7917;50.818;6.972;2023-04-24T01:31:19;10.80;1.00
15636;DHT22;7917;50.818;6.972;2023-04-24T01:33:47;10.80;99.90
15636;DHT22;7917;50.818;6.972;2023-04-24T01:36:14;10.80;99.90
15636;DHT22;7917;50.818;6.972;2023-04-24T01:38:41;10.80;1.00
15636;DHT22;7917;50.818;6.972;2023-04-24T01:41:08;10.80;99.90
15636;DHT22;7917;50.818;6.972;2023-04-24T01:43:36;10.80;1.00
15636;DHT22;7917;50.818;6.972;2023-04-24T01:46:02;10.80;1.00
15636;DHT22;7917;50.818;6.972;2023-04-24T01:48:32;10.70;99.90
15636;DHT22;7917;50.818;6.972;2023-04-24T01:51:00;10.70;1.00
15636;DHT22;7917;50.818;6.972;2023-04-24T01:53:26;10.60;99.90
15636;DHT22;7917;50.818;6.972;2023-04-24T01:55:53;10.50;1.00
15636;DHT22;7917;50.818;6.972;2023-04-24T01:58:23;10.40;1.00
15636;DHT22;7917;50.818;6.972;2023-04-24T02:00:50;10.30;99.90
15636;DHT22;7917;50.818;6.972;2023-04-24T02:03:17;10.20;99.90
15636;DHT22;7917;50.818;6.972;2023-04-24T02:05:44;10.20;1.00
15636;DHT22;7917;50.818;6.972;2023-04-24T02:08:12;10.20;1.00
15636;DHT22;7917;50.818;6.972;2023-04-24T02:10:38;10.10;99.90
15636;DHT22;7917;50.818;6.972;2023-04-24T02:13:05;10.10;99.90
15636;DHT22;7917;50.818;6.972;2023-04-24T02:15:33;10.10;99.90
15636;DHT22;7917;50.818;6.972;2023-04-24T02:17:59;10.10;99.90
15636;DHT22;7917;50.818;6.972;2023-04-24T02:20:26;10.00;99.90
15636;DHT22;7917;50.818;6.972;2023-04-24T02:22:53;9.80;99.90
15636;DHT22;7917;50.818;6.972;2023-04-24T02:25:20;9.80;99.90
15636;DHT22;7917;50.818;6.972;2023-04-24T02:27:46;9.70;99.90
15636;DHT22;7917;50.818;6.972;2023-04-24T02:30:13;9.60;1.00
15636;DHT22;7917;50.818;6.972;2023-04-24T02:32:40;9.60;1.00
15636;DHT22;7917;50.818;6.972;2023-04-24T02:35:08;9.50;1.00
15636;DHT22;7917;50.818;6.972;2023-04-24T02:37:34;9.40;1.00
15636;DHT22;7917;50.818;6.972;2023-04-24T02:40:01;9.30;1.00
15636;DHT22;7917;50.818;6.972;2023-04-24T02:42:35;9.20;1.00
15636;DHT22;7917;50.818;6.972;2023-04-24T02:45:01;9.20;1.00
15636;DHT22;7917;50.818;6.972;2023-04-24T02:47:31;9.20;1.00
15636;DHT22;7917;50.818;6.972;2023-04-24T02:49:58;9.30;1.00
15636;DHT22;7917;50.818;6.972;2023-04-24T02:52:28;9.30;1.00
15636;DHT22;7917;50.818;6.972;2023-04-24T02:54:54;9.30;1.00
15636;DHT22;7917;50.818;6.972;2023-04-24T02:57:21;9.30;99.90
15636;DHT22;7917;50.818;6.972;2023-04-24T02:59:48;9.30;99.90
15636;DHT22;7917;50.818;6.972;2023-04-24T03:02:20;9.30;99.90
15636;DHT22;7917;50.818;6.972;2023-04-24T03:04:47;9.30;99.90
15636;DHT22;7917;50.818;6.972;2023-04-24T03:07:15;9.30;99.90
15636;DHT22;7917;50.818;6.972;2023-04-24T03:09:46;9.30;1.00
15636;DHT22;7917;50.818;6.972;2023-04-24T03:12:13;9.30;1.00
15636;DHT22;7917;50.818;6.972;2023-04-24T03:14:40;9.20;1.00
15636;DHT22;7917;50.818;6.972;2023-04-24T03:17:13;9.20;1.00
15636;DHT22;7917;50.818;6.972;2023-04-24T03:19:40;9.00;8.10
15636;DHT22;7917;50.818;6.972;2023-04-24T03:22:06;8.90;99.90
15636;DHT22;7917;50.818;6.972;2023-04-24T03:24:35;8.80;99.90
15636;DHT22;7917;50.818;6.972;2023-04-24T03:27:02;8.70;99.90
15636;DHT22;7917;50.818;6.972;2023-04-24T03:29:29;8.70;99.90
15636;DHT22;7917;50.818;6.972;2023-04-24T03:31:55;8.60;1.00
15636;DHT22;7917;50.818;6.972;2023-04-24T03:34:22;8.50;1.00
15636;DHT22;7917;50.818;6.972;2023-04-24T03:36:49;8.50;1.00
15636;DHT22;7917;50.818;6.972;2023-04-24T03:39:16;8.60;1.00
15636;DHT22;7917;50.818;6.972;2023-04-24T03:41:43;8.60;23.30
15636;DHT22;7917;50.818;6.972;2023-04-24T03:44:10;8.50;99.90
15636;DHT22;7917;50.818;6.972;2023-04-24T03:46:40;8.50;21.60
15636;DHT22;7917;50.818;6.972;2023-04-24T03:49:07;8.40;99.90
15636;DHT22;7917;50.818;6.972;2023-04-24T03:51:33;8.40;99.90
15636;DHT22;7917;50.818;6.972;2023-04-24T03:54:00;8.40;99.90
15636;DHT22;7917;50.818;6.972;2023-04-24T03:56:27;8.30;99.90
15636;DHT22;7917;50.818;6.972;2023-04-24T03:58:54;8.20;1.00
15636;DHT22;7917;50.818;6.972;2023-04-24T04:01:21;8.10;12.90
15636;DHT22;7917;50.818;6.972;2023-04-24T04:04:10;8.10;99.90
15636;DHT22;7917;50.818;6.972;2023-04-24T04:06:37;8.20;83.30
15636;DHT22;7917;50.818;6.972;2023-04-24T04:09:04;8.30;1.00
15636;DHT22;7917;50.818;6.972;2023-04-24T04:11:30;8.40;1.00
15636;DHT22;7917;50.818;6.972;2023-04-24T04:13:58;8.50;99.90
15636;DHT22;7917;50.818;6.972;2023-04-24T04:16:28;8.40;99.90
15636;DHT22;7917;50.818;6.972;2023-04-24T04:18:55;8.30;99.90
15636;DHT22;7917;50.818;6.972;2023-04-24T04:21:21;8.30;99.90
15636;DHT22;7917;50.818;6.972;2023-04-24T04:23:48;8.30;1.00
15636;DHT22;7917;50.818;6.972;2023-04-24T04:26:18;8.40;1.00
15636;DHT22;7917;50.818;6.972;2023-04-24T04:28:47;8.50;99.90
15636;DHT22;7917;50.818;6.972;2023-04-24T04:31:15;8.50;99.90
15636;DHT22;7917;50.818;6.972;2023-04-24T04:33:42;8.60;99.90
15636;DHT22;7917;50.818;6.972;2023-04-24T04:36:09;8.60;1.00
15636;DHT22;7917;50.818;6.972;2023-04-24T04:38:35;8.60;1.00
15636;DHT22;7917;50.818;6.972;2023-04-24T04:41:03;8.50;1.00
15636;DHT22;7917;50.818;6.972;2023-04-24T04:43:30;8.60;99.90
15636;DHT22;7917;50.818;6.972;2023-04-24T04:46:02;8.60;99.90
15636;DHT22;7917;50.818;6.972;2023-04-24T04:48:30;8.60;99.90
15636;DHT22;7917;50.818;6.972;2023-04-24T04:50:57;8.60;99.90
15636;DHT22;7917;50.818;6.972;2023-04-24T04:53:25;8.60;1.00
15636;DHT22;7917;50.818;6.972;2023-04-24T04:55:52;8.60;99.90
15636;DHT22;7917;50.818;6.972;2023-04-24T04:58:18;8.50;1.00
15636;DHT22;7917;50.818;6.972;2023-04-24T05:00:46;8.40;1.00
15636;DHT22;7917;50.818;6.972;2023-04-24T05:03:18;8.40;1.00
15636;DHT22;7917;50.818;6.972;2023-04-24T05:05:46;8.40;99.90
15636;DHT22;7917;50.818;6.972;2023-04-24T05:08:13;8.40;1.00
15636;DHT22;7917;50.818;6.972;2023-04-24T05:10:41;8.40;1.00
15636;DHT22;7917;50.818;6.972;2023-04-24T05:13:08;8.40;1.00
15636;DHT22;7917;50.818;6.972;2023-04-24T05:15:35;8.50;1.00
15636;DHT22;7917;50.818;6.972;2023-04-24T05:18:02;8.50;1.00
15636;DHT22;7917;50.818;6.972;2023-04-24T05:20:28;8.60;1.00
15636;DHT22;7917;50.818;6.972;2023-04-24T05:22:58;8.70;99.90
15636;DHT22;7917;50.818;6.972;2023-04-24T05:25:25;8.80;99.90
15636;DHT22;7917;50.818;6.972;2023-04-24T05:27:52;8.90;1.00
15636;DHT22;7917;50.818;6.972;2023-04-24T05:30:21;9.00;1.00
15636;DHT22;7917;50.818;6.972;2023-04-24T05:32:48;9.00;1.00
15636;DHT22;7917;50.818;6.972;2023-04-24T05:35:15;9.00;99.90
15636;DHT22;7917;50.818;6.972;2023-04-24T05:37:42;9.00;99.90
15636;DHT22;7917;50.818;6.972;2023-04-24T05:40:10;9.00;1.00
15636;DHT22;7917;50.818;6.972;2023-04-24T05:42:37;9.00;99.90
15636;DHT22;7917;50.818;6.972;2023-04-24T05:45:08;8.90;99.90
15636;DHT22;7917;50.818;6.972;2023-04-24T05:47:40;8.90;1.00
15636;DHT22;7917;50.818;6.972;2023-04-24T05:50:07;8.90;1.00
15636;DHT22;7917;50.818;6.972;2023-04-24T05:52:50;9.00;1.00
15636;DHT22;7917;50.818;6.972;2023-04-24T05:55:20;9.10;52.60
15636;DHT22;7917;50.818;6.972;2023-04-24T05:57:47;9.10;1.00
15636;DHT22;7917;50.818;6.972;2023-04-24T06:00:14;9.20;99.90
15636;DHT22;7917;50.818;6.972;2023-04-24T06:02:41;9.20;99.90
15636;DHT22;7917;50.818;6.972;2023-04-24T06:05:08;9.30;1.00
15636;DHT22;7917;50.818;6.972;2023-04-24T06:07:35;9.40;1.00
15636;DHT22;7917;50.818;6.972;2023-04-24T06:10:02;9.40;99.90
15636;DHT22;7917;50.818;6.972;2023-04-24T06:12:30;9.50;1.00
15636;DHT22;7917;50.818;6.972;2023-04-24T06:14:57;9.50;1.00
15636;DHT22;7917;50.818;6.972;2023-04-24T06:17:24;9.60;1.00
15636;DHT22;7917;50.818;6.972;2023-04-24T06:20:06;9.70;29.10
15636;DHT22;7917;50.818;6.972;2023-04-24T06:22:34;9.70;1.00
15636;DHT22;7917;50.818;6.972;2023-04-24T06:25:01;9.80;76.50
15636;DHT22;7917;50.818;6.972;2023-04-24T06:27:29;9.80;99.90
15636;DHT22;7917;50.818;6.972;2023-04-24T06:29:56;9.80;65.50
15636;DHT22;7917;50.818;6.972;2023-04-24T06:32:23;9.70;99.90
15636;DHT22;7917;50.818;6.972;2023-04-24T06:34:51;9.70;99.90
15636;DHT22;7917;50.818;6.972;2023-04-24T06:37:19;9.70;1.00
15636;DHT22;7917;50.818;6.972;2023-04-24T06:39:46;9.60;1.00
15636;DHT22;7917;50.818;6.972;2023-04-24T06:42:13;9.60;99.90
15636;DHT22;7917;50.818;6.972;2023-04-24T06:44:40;9.50;99.90
15636;DHT22;7917;50.818;6.972;2023-04-24T06:47:07;9.30;1.00
15636;DHT22;7917;50.818;6.972;2023-04-24T06:49:34;9.30;99.90
15636;DHT22;7917;50.818;6.972;2023-04-24T06:52:01;9.20;91.20
15636;DHT22;7917;50.818;6.972;2023-04-24T06:54:28;9.10;1.00
15636;DHT22;7917;50.818;6.972;2023-04-24T06:56:55;9.10;1.00
15636;DHT22;7917;50.818;6.972;2023-04-24T06:59:23;9.20;99.90
15636;DHT22;7917;50.818;6.972;2023-04-24T07:01:51;9.20;99.90
15636;DHT22;7917;50.818;6.972;2023-04-24T07:04:17;9.10;99.90
15636;DHT22;7917;50.818;6.972;2023-04-24T07:06:45;9.20;99.90
15636;DHT22;7917;50.818;6.972;2023-04-24T07:09:12;9.10;99.90
15636;DHT22;7917;50.818;6.972;2023-04-24T07:11:39;9.10;99.90
15636;DHT22;7917;50.818;6.972;2023-04-24T07:14:06;9.10;90.90
15636;DHT22;7917;50.818;6.972;2023-04-24T07:16:33;9.00;1.00
15636;DHT22;7917;50.818;6.972;2023-04-24T07:19:01;9.10;99.90
15636;DHT22;7917;50.818;6.972;2023-04-24T07:21:28;9.00;1.00
15636;DHT22;7917;50.818;6.972;2023-04-24T07:23:54;9.00;1.00
15636;DHT22;7917;50.818;6.972;2023-04-24T07:26:21;8.90;1.00
15636;DHT22;7917;50.818;6.972;2023-04-24T07:28:48;8.90;99.90
15636;DHT22;7917;50.818;6.972;2023-04-24T07:31:15;8.80;1.00
15636;DHT22;7917;50.818;6.972;2023-04-24T07:33:42;8.80;1.00
15636;DHT22;7917;50.818;6.972;2023-04-24T07:36:09;8.70;99.90
15636;DHT22;7917;50.818;6.972;2023-04-24T07:38:41;8.70;99.90
15636;DHT22;7917;50.818;6.972;2023-04-24T07:41:08;8.70;1.00
15636;DHT22;7917;50.818;6.972;2023-04-24T07:43:34;8.70;1.00
15636;DHT22;7917;50.818;6.972;2023-04-24T07:46:01;8.70;1.00
15636;DHT22;7917;50.818;6.972;2023-04-24T07:48:29;8.60;1.00
15636;DHT22;7917;50.818;6.972;2023-04-24T07:50:59;8.60;99.90
15636;DHT22;7917;50.818;6.972;2023-04-24T07:53:28;8.50;25.70
15636;DHT22;7917;50.818;6.972;2023-04-24T07:55:56;8.40;99.90
15636;DHT22;7917;50.818;6.972;2023-04-24T07:58:23;8.30;1.00
15636;DHT22;7917;50.818;6.972;2023-04-24T08:00:50;8.20;99.90
15636;DHT22;7917;50.818;6.972;2023-04-24T08:03:17;8.00;1.00
15636;DHT22;7917;50.818;6.972;2023-04-24T08:05:46;7.90;1.00
15636;DHT22;7917;50.818;6.972;2023-04-24T08:08:13;7.80;1.00
15636;DHT22;7917;50.818;6.972;2023-04-24T08:10:40;7.80;1.00
15636;DHT22;7917;50.818;6.972;2023-04-24T08:13:07;7.80;99.90
15636;DHT22;7917;50.818;6.972;2023-04-24T08:15:34;7.70;99.90
15636;DHT22;7917;50.818;6.972;2023-04-24T08:18:01;7.80;99.90
15636;DHT22;7917;50.818;6.972;2023-04-24T08:20:28;7.90;99.90
15636;DHT22;7917;50.818;6.972;2023-04-24T08:22:55;7.90;99.90
15636;DHT22;7917;50.818;6.972;2023-04-24T08:25:22;8.00;99.90
15636;DHT22;7917;50.818;6.972;2023-04-24T08:27:53;8.00;99.90
15636;DHT22;7917;50.818;6.972;2023-04-24T08:30:20;8.00;99.90
15636;DHT22;7917;50.818;6.972;2023-04-24T08:32:48;7.90;99.90
15636;DHT22;7917;50.818;6.972;2023-04-24T08:35:14;7.90;99.90
15636;DHT22;7917;50.818;6.972;2023-04-24T08:37:41;7.70;99.90
15636;DHT22;7917;50.818;6.972;2023-04-24T08:40:12;7.70;99.90
15636;DHT22;7917;50.818;6.972;2023-04-24T08:42:42;7.60;99.90
15636;DHT22;7917;50.818;6.972;2023-04-24T08:45:12;7.50;99.90
15636;DHT22;7917;50.818;6.972;2023-04-24T08:47:40;7.50;1.00
15636;DHT22;7917;50.818;6.972;2023-04-24T08:50:08;7.40;61.70
15636;DHT22;7917;50.818;6.972;2023-04-24T08:52:35;7.30;99.90
15636;DHT22;7917;50.818;6.972;2023-04-24T08:55:02;7.40;99.90
15636;DHT22;7917;50.818;6.972;2023-04-24T08:57:30;7.50;99.90
15636;DHT22;7917;50.818;6.972;2023-04-24T08:59:58;7.50;99.90
15636;DHT22;7917;50.818;6.972;2023-04-24T09:02:26;7.50;99.90
15636;DHT22;7917;50.818;6.972;2023-04-24T09:04:53;7.40;99.90
15636;DHT22;7917;50.818;6.972;2023-04-24T09:07:21;7.40;99.90
15636;DHT22;7917;50.818;6.972;2023-04-24T09:09:50;7.50;99.90
15636;DHT22;7917;50.818;6.972;2023-04-24T09:12:18;7.50;99.90
15636;DHT22;7917;50.818;6.972;2023-04-24T09:14:51;7.50;99.90
15636;DHT22;7917;50.818;6.972;2023-04-24T09:17:19;7.60;99.90
15636;DHT22;7917;50.818;6.972;2023-04-24T09:19:46;7.60;99.90
15636;DHT22;7917;50.818;6.972;2023-04-24T09:22:14;7.60;99.90
15636;DHT22;7917;50.818;6.972;2023-04-24T09:24:41;7.60;99.90
15636;DHT22;7917;50.818;6.972;2023-04-24T09:27:12;7.70;99.90
15636;DHT22;7917;50.818;6.972;2023-04-24T09:29:39;7.70;99.90
15636;DHT22;7917;50.818;6.972;2023-04-24T09:32:19;7.80;99.90
15636;DHT22;7917;50.818;6.972;2023-04-24T09:34:48;8.00;99.90
15636;DHT22;7917;50.818;6.972;2023-04-24T09:37:27;8.00;99.90
15636;DHT22;7917;50.818;6.972;2023-04-24T09:40:11;8.10;99.90
15636;DHT22;7917;50.818;6.972;2023-04-24T09:42:38;8.20;99.90
15636;DHT22;7917;50.818;6.972;2023-04-24T09:45:09;8.30;99.90
15636;DHT22;7917;50.818;6.972;2023-04-24T09:47:37;8.30;99.90
15636;DHT22;7917;50.818;6.972;2023-04-24T09:50:11;8.30;99.90
15636;DHT22;7917;50.818;6.972;2023-04-24T09:52:43;8.40;99.90
15636;DHT22;7917;50.818;6.972;2023-04-24T09:55:19;8.50;99.90
15636;DHT22;7917;50.818;6.972;2023-04-24T09:57:50;8.60;99.90
15636;DHT22;7917;50.818;6.972;2023-04-24T10:00:24;8.70;99.90
15636;DHT22;7917;50.818;6.972;2023-04-24T10:02:58;8.70;99.90
15636;DHT22;7917;50.818;6.972;2023-04-24T10:05:29;8.70;1.00
15636;DHT22;7917;50.818;6.972;2023-04-24T10:08:01;8.70;99.90
15636;DHT22;7917;50.818;6.972;2023-04-24T10:10:30;8.50;99.90
15636;DHT22;7917;50.818;6.972;2023-04-24T10:12:57;8.60;1.00
15636;DHT22;7917;50.818;6.972;2023-04-24T10:15:24;8.70;1.00
15636;DHT22;7917;50.818;6.972;2023-04-24T10:17:52;8.90;99.90
15636;DHT22;7917;50.818;6.972;2023-04-24T10:20:20;8.90;1.00
15636;DHT22;7917;50.818;6.972;2023-04-24T10:22:50;9.10;1.00
15636;DHT22;7917;50.818;6.972;2023-04-24T10:25:19;9.30;99.90
15636;DHT22;7917;50.818;6.972;2023-04-24T10:27:46;9.50;1.00
15636;DHT22;7917;50.818;6.972;2023-04-24T10:30:14;9.50;1.00
15636;DHT22;7917;50.818;6.972;2023-04-24T10:32:41;9.70;1.00
15636;DHT22;7917;50.818;6.972;2023-04-24T10:35:12;9.90;99.90
15636;DHT22;7917;50.818;6.972;2023-04-24T10:37:45;9.90;99.90
15636;DHT22;7917;50.818;6.972;2023-04-24T10:40:17;9.90;1.00
15636;DHT22;7917;50.818;6.972;2023-04-24T10:42:47;10.00;1.00
15636;DHT22;7917;50.818;6.972;2023-04-24T10:45:17;10.20;1.00
15636;DHT22;7917;50.818;6.972;2023-04-24T10:47:53;10.30;1.00
15636;DHT22;7917;50.818;6.972;2023-04-24T10:50:23;10.20;1.00
15636;DHT22;7917;50.818;6.972;2023-04-24T10:52:50;10.30;1.00
15636;DHT22;7917;50.818;6.972;2023-04-24T10:55:40;10.20;99.90
15636;DHT22;7917;50.818;6.972;2023-04-24T10:58:07;10.20;99.90
15636;DHT22;7917;50.818;6.972;2023-04-24T11:00:36;10.50;99.90
15636;DHT22;7917;50.818;6.972;2023-04-24T11:03:04;10.70;1.00
15636;DHT22;7917;50.818;6.972;2023-04-24T11:05:58;10.50;99.90
15636;DHT22;7917;50.818;6.972;2023-04-24T11:08:30;10.50;1.00
15636;DHT22;7917;50.818;6.972;2023-04-24T11:11:03;10.40;1.00
15636;DHT22;7917;50.818;6.972;2023-04-24T11:14:01;10.10;55.90
15636;DHT22;7917;50.818;6.972;2023-04-24T11:16:29;9.70;99.90
15636;DHT22;7917;50.818;6.972;2023-04-24T11:19:02;9.50;1.00
15636;DHT22;7917;50.818;6.972;2023-04-24T11:21:39;9.40;1.00
15636;DHT22;7917;50.818;6.972;2023-04-24T11:24:24;9.20;99.90
15636;DHT22;7917;50.818;6.972;2023-04-24T11:26:53;9.20;1.00
15636;DHT22;7917;50.818;6.972;2023-04-24T11:29:20;9.30;1.00
15636;DHT22;7917;50.818;6.972;2023-04-24T11:31:48;9.40;1.00
15636;DHT22;7917;50.818;6.972;2023-04-24T11:34:18;9.70;1.00
15636;DHT22;7917;50.818;6.972;2023-04-24T11:36:45;9.90;99.90
15636;DHT22;7917;50.818;6.972;2023-04-24T11:39:13;10.20;99.90
15636;DHT22;7917;50.818;6.972;2023-04-24T11:41:40;10.20;68.80
15636;DHT22;7917;50.818;6.972;2023-04-24T11:44:08;10.00;1.00
15636;DHT22;7917;50.818;6.972;2023-04-24T11:46:36;10.10;1.00
15636;DHT22;7917;50.818;6.972;2023-04-24T11:49:03;10.30;99.90
15636;DHT22;7917;50.818;6.972;2023-04-24T11:51:31;10.60;99.90
15636;DHT22;7917;50.818;6.972;2023-04-24T11:53:58;10.70;99.90
15636;DHT22;7917;50.818;6.972;2023-04-24T11:56:25;10.60;1.00
15636;DHT22;7917;50.818;6.972;2023-04-24T11:58:52;10.70;1.00
15636;DHT22;7917;50.818;6.972;2023-04-24T12:01:21;11.10;1.00
15636;DHT22;7917;50.818;6.972;2023-04-24T12:03:49;11.80;99.90
15636;DHT22;7917;50.818;6.972;2023-04-24T12:06:17;12.20;99.90
15636;DHT22;7917;50.818;6.972;2023-04-24T12:08:46;12.40;1.00
15636;DHT22;7917;50.818;6.972;2023-04-24T12:11:16;12.50;99.90
15636;DHT22;7917;50.818;6.972;2023-04-24T12:13:44;12.10;1.00
15636;DHT22;7917;50.818;6.972;2023-04-24T12:16:11;12.00;1.00
15636;DHT22;7917;50.818;6.972;2023-04-24T12:18:43;12.20;1.00
15636;DHT22;7917;50.818;6.972;2023-04-24T12:21:19;12.10;47.90
15636;DHT22;7917;50.818;6.972;2023-04-24T12:23:46;11.80;1.00
15636;DHT22;7917;50.818;6.972;2023-04-24T12:26:16;11.70;99.90
15636;DHT22;7917;50.818;6.972;2023-04-24T12:28:47;11.50;1.00
15636;DHT22;7917;50.818;6.972;2023-04-24T12:31:17;11.10;1.00
15636;DHT22;7917;50.818;6.972;2023-04-24T12:33:49;11.10;99.90
15636;DHT22;7917;50.818;6.972;2023-04-24T12:36:16;10.90;1.00
15636;DHT22;7917;50.818;6.972;2023-04-24T12:38:44;11.00;1.00
15636;DHT22;7917;50.818;6.972;2023-04-24T12:41:13;11.10;1.00
15636;DHT22;7917;50.818;6.972;2023-04-24T12:43:51;11.40;99.90
15636;DHT22;7917;50.818;6.972;2023-04-24T12:46:18;11.80;99.90
15636;DHT22;7917;50.818;6.972;2023-04-24T12:48:45;12.30;1.00
15636;DHT22;7917;50.818;6.972;2023-04-24T12:51:13;12.80;1.00
15636;DHT22;7917;50.818;6.972;2023-04-24T12:53:39;12.80;61.00
15636;DHT22;7917;50.818;6.972;2023-04-24T12:56:06;13.10;1.00
15636;DHT22;7917;50.818;6.972;2023-04-24T12:58:33;13.20;99.90
15636;DHT22;7917;50.818;6.972;2023-04-24T13:01:00;13.80;1.00
15636;DHT22;7917;50.818;6.972;2023-04-24T13:03:27;13.70;99.90
15636;DHT22;7917;50.818;6.972;2023-04-24T13:05:53;13.60;99.90
15636;DHT22;7917;50.818;6.972;2023-04-24T13:08:24;13.10;99.90
15636;DHT22;7917;50.818;6.972;2023-04-24T13:10:51;13.20;99.90
15636;DHT22;7917;50.818;6.972;2023-04-24T13:13:19;13.10;99.90
15636;DHT22;7917;50.818;6.972;2023-04-24T13:15:46;13.20;99.90
15636;DHT22;7917;50.818;6.972;2023-04-24T13:18:13;13.10;99.90
15636;DHT22;7917;50.818;6.972;2023-04-24T13:20:39;13.00;99.90
15636;DHT22;7917;50.818;6.972;2023-04-24T13:23:07;13.10;99.90
15636;DHT22;7917;50.818;6.972;2023-04-24T13:25:37;13.00;99.90
15636;DHT22;7917;50.818;6.972;2023-04-24T13:28:04;12.80;99.90
15636;DHT22;7917;50.818;6.972;2023-04-24T13:30:32;12.70;99.90
15636;DHT22;7917;50.818;6.972;2023-04-24T13:32:59;12.80;99.90
15636;DHT22;7917;50.818;6.972;2023-04-24T13:35:26;12.40;99.90
15636;DHT22;7917;50.818;6.972;2023-04-24T13:37:53;12.10;99.90
15636;DHT22;7917;50.818;6.972;2023-04-24T13:40:20;12.00;1.00
15636;DHT22;7917;50.818;6.972;2023-04-24T13:42:47;12.60;99.90
15636;DHT22;7917;50.818;6.972;2023-04-24T13:45:14;12.90;99.90
15636;DHT22;7917;50.818;6.972;2023-04-24T13:47:41;12.80;99.90
15636;DHT22;7917;50.818;6.972;2023-04-24T13:50:08;13.00;99.90
15636;DHT22;7917;50.818;6.972;2023-04-24T13:52:36;12.70;99.90
15636;DHT22;7917;50.818;6.972;2023-04-24T13:55:03;12.40;99.90
15636;DHT22;7917;50.818;6.972;2023-04-24T13:57:30;12.40;1.00
15636;DHT22;7917;50.818;6.972;2023-04-24T13:59:59;12.40;99.90
15636;DHT22;7917;50.818;6.972;2023-04-24T14:02:27;12.20;99.90
15636;DHT22;7917;50.818;6.972;2023-04-24T14:04:54;12.10;99.90
15636;DHT22;7917;50.818;6.972;2023-04-24T14:07:24;12.10;1.00
15636;DHT22;7917;50.818;6.972;2023-04-24T14:09:54;12.20;99.90
15636;DHT22;7917;50.818;6.972;2023-04-24T14:12:24;12.70;99.90
15636;DHT22;7917;50.818;6.972;2023-04-24T14:14:54;13.00;99.90
15636;DHT22;7917;50.818;6.972;2023-04-24T14:17:23;13.80;99.90
15636;DHT22;7917;50.818;6.972;2023-04-24T14:19:50;13.80;99.90
15636;DHT22;7917;50.818;6.972;2023-04-24T14:22:17;13.70;99.90
15636;DHT22;7917;50.818;6.972;2023-04-24T14:24:44;13.90;99.90
15636;DHT22;7917;50.818;6.972;2023-04-24T14:27:11;13.40;99.90
15636;DHT22;7917;50.818;6.972;2023-04-24T14:29:38;13.30;99.90
15636;DHT22;7917;50.818;6.972;2023-04-24T14:32:08;13.70;99.90
15636;DHT22;7917;50.818;6.972;2023-04-24T14:34:36;14.40;99.90
15636;DHT22;7917;50.818;6.972;2023-04-24T14:37:03;15.10;99.90
15636;DHT22;7917;50.818;6.972;2023-04-24T14:39:30;14.80;99.90
15636;DHT22;7917;50.818;6.972;2023-04-24T14:41:56;14.70;99.90
15636;DHT22;7917;50.818;6.972;2023-04-24T14:44:23;14.30;99.90
15636;DHT22;7917;50.818;6.972;2023-04-24T14:46:50;14.50;99.90
15636;DHT22;7917;50.818;6.972;2023-04-24T14:49:17;15.50;99.90
15636;DHT22;7917;50.818;6.972;2023-04-24T14:51:45;15.70;99.90
15636;DHT22;7917;50.818;6.972;2023-04-24T14:54:12;16.10;97.20
15636;DHT22;7917;50.818;6.972;2023-04-24T14:56:39;16.60;89.60
15636;DHT22;7917;50.818;6.972;2023-04-24T14:59:06;16.50;80.10
15636;DHT22;7917;50.818;6.972;2023-04-24T15:01:33;16.70;73.60
15636;DHT22;7917;50.818;6.972;2023-04-24T15:04:00;16.30;93.30
15636;DHT22;7917;50.818;6.972;2023-04-24T15:06:27;15.40;97.00
15636;DHT22;7917;50.818;6.972;2023-04-24T15:08:57;15.10;98.10
15636;DHT22;7917;50.818;6.972;2023-04-24T15:11:24;15.00;99.90
15636;DHT22;7917;50.818;6.972;2023-04-24T15:13:51;15.50;99.90
15636;DHT22;7917;50.818;6.972;2023-04-24T15:16:18;15.70;99.90
15636;DHT22;7917;50.818;6.972;2023-04-24T15:18:45;16.30;99.90
15636;DHT22;7917;50.818;6.972;2023-04-24T15:21:11;17.00;73.90
15636;DHT22;7917;50.818;6.972;2023-04-24T15:23:39;17.20;75.80
15636;DHT22;7917;50.818;6.972;2023-04-24T15:26:06;17.60;58.30
15636;DHT22;7917;50.818;6.972;2023-04-24T15:28:33;17.60;57.70
15636;DHT22;7917;50.818;6.972;2023-04-24T15:31:00;16.70;69.00
15636;DHT22;7917;50.818;6.972;2023-04-24T15:33:27;16.60;65.30
15636;DHT22;7917;50.818;6.972;2023-04-24T15:35:54;16.30;68.70
15636;DHT22;7917;50.818;6.972;2023-04-24T15:38:21;16.00;76.00
15636;DHT22;7917;50.818;6.972;2023-04-24T15:40:48;16.10;71.50
15636;DHT22;7917;50.818;6.972;2023-04-24T15:43:15;15.50;92.20
15636;DHT22;7917;50.818;6.972;2023-04-24T15:45:43;16.10;74.10
15636;DHT22;7917;50.818;6.972;2023-04-24T15:48:10;16.00;68.50
15636;DHT22;7917;50.818;6.972;2023-04-24T15:50:37;16.00;81.70
15636;DHT22;7917;50.818;6.972;2023-04-24T15:53:04;15.60;85.20
15636;DHT22;7917;50.818;6.972;2023-04-24T15:55:35;15.10;96.30
15636;DHT22;7917;50.818;6.972;2023-04-24T15:58:02;15.40;99.90
15636;DHT22;7917;50.818;6.972;2023-04-24T16:00:30;15.60;93.40
15636;DHT22;7917;50.818;6.972;2023-04-24T16:03:00;14.90;99.90
15636;DHT22;7917;50.818;6.972;2023-04-24T16:05:27;14.30;99.90